createdAt,value
2019-06-20T00:04:51.870Z,87.27
2019-06-20T00:09:53.685Z,87.89
2019-06-20T00:14:56.665Z,88.89
2019-06-20T00:19:58.717Z,89.01
2019-06-20T00:25:05.910Z,88.39
2019-06-20T00:30:08.487Z,89.35
2019-06-20T00:35:12.028Z,88.18
2019-06-20T00:40:15.564Z,87.02
2019-06-20T00:45:18.449Z,88.28
2019-06-20T00:50:20.151Z,87.96
2019-06-20T00:55:24.935Z,90.68
2019-06-20T01:00:30.327Z,89.96
2019-06-20T01:05:32.843Z,90.08
2019-06-20T01:10:39.928Z,89.88
2019-06-20T01:15:43.165Z,87.41
2019-06-20T01:20:46.408Z,87.90
2019-06-20T01:25:51.000Z,86.44
2019-06-20T01:30:54.198Z,87.18
2019-06-20T01:35:57.307Z,86.68
2019-06-20T01:41:06.259Z,87.26
2019-06-20T01:46:08.396Z,88.10
2019-06-20T01:51:11.938Z,84.93
2019-06-20T01:56:16.035Z,85.19
2019-06-20T02:01:17.886Z,84.93
2019-06-20T02:06:19.950Z,85.37
2019-06-20T02:11:21.676Z,85.32
2019-06-20T02:16:28.202Z,84.99
2019-06-20T02:21:32.755Z,84.80
2019-06-20T02:26:34.604Z,84.92
2019-06-20T02:31:36.318Z,84.10
2019-06-20T02:36:40.550Z,84.73
2019-06-20T02:41:42.820Z,85.14
2019-06-20T02:46:46.439Z,85.13
2019-06-20T02:51:49.865Z,83.42
2019-06-20T02:56:55.707Z,83.58
2019-06-20T03:01:57.707Z,83.39
2019-06-20T03:07:00.716Z,82.36
2019-06-20T03:12:05.048Z,83.39
2019-06-20T03:17:09.608Z,84.83
2019-06-20T03:22:12.597Z,83.73
2019-06-20T03:27:14.644Z,82.36
2019-06-20T03:32:17.884Z,81.69
2019-06-20T03:37:19.591Z,83.19
2019-06-20T03:42:21.456Z,83.76
2019-06-20T03:47:24.363Z,82.83
2019-06-20T03:52:26.215Z,82.74
2019-06-20T03:57:28.608Z,82.83
2019-06-20T04:02:33.470Z,83.05
2019-06-20T04:07:36.106Z,81.75
2019-06-20T04:12:40.421Z,83.55
2019-06-20T04:17:42.791Z,84.01
2019-06-20T04:22:44.481Z,85.72
2019-06-20T04:27:46.385Z,82.42
2019-06-20T04:32:53.699Z,83.60
2019-06-20T04:37:59.193Z,84.18
2019-06-20T04:43:01.310Z,82.95
2019-06-20T04:48:03.178Z,83.14
2019-06-20T04:53:06.577Z,82.54
2019-06-20T04:58:11.831Z,82.84
2019-06-20T05:03:15.155Z,83.61
2019-06-20T05:08:18.395Z,83.45
2019-06-20T05:13:24.012Z,83.02
2019-06-20T05:18:25.753Z,81.27
2019-06-20T05:23:30.804Z,81.90
2019-06-20T05:28:32.595Z,84.48
2019-06-20T05:33:39.402Z,82.36
2019-06-20T05:38:41.253Z,82.45
2019-06-20T05:43:45.947Z,80.25
2019-06-20T05:48:47.668Z,71.56
2019-06-20T05:53:51.693Z,79.40
2019-06-20T05:58:53.260Z,81.96
2019-06-20T06:03:56.424Z,76.75
2019-06-20T06:08:59.072Z,77.41
2019-06-20T06:14:00.894Z,77.23
2019-06-20T06:19:07.588Z,70.31
2019-06-20T06:24:10.496Z,76.83
2019-06-20T06:29:14.004Z,77.75
2019-06-20T06:34:21.875Z,76.73
2019-06-20T06:39:22.887Z,72.72
2019-06-20T06:44:24.795Z,72.11
2019-06-20T06:49:26.682Z,68.57
2019-06-20T06:54:30.606Z,69.26
2019-06-20T06:59:34.600Z,68.82
2019-06-20T07:04:38.158Z,70.92
2019-06-20T07:09:40.194Z,68.84
2019-06-20T07:14:42.940Z,69.43
2019-06-20T07:19:47.262Z,69.58
2019-06-20T07:24:49.242Z,66.61
2019-06-20T07:29:51.027Z,70.85
2019-06-20T07:34:52.836Z,71.06
2019-06-20T07:39:57.203Z,70.32
2019-06-20T07:45:01.542Z,68.73
2019-06-20T07:50:09.577Z,70.22
2019-06-20T07:55:11.836Z,70.61
2019-06-20T08:00:14.132Z,65.80
2019-06-20T08:05:16.834Z,63.07
2019-06-20T08:10:22.590Z,65.89
2019-06-20T08:15:29.699Z,65.57
2019-06-20T08:20:33.936Z,63.15
2019-06-20T08:25:39.929Z,65.98
2019-06-20T08:30:42.015Z,70.20
2019-06-20T08:35:43.817Z,69.46
2019-06-20T08:40:47.802Z,70.93
2019-06-20T08:45:52.422Z,65.06
2019-06-20T08:50:58.531Z,64.25
2019-06-20T08:56:03.204Z,66.80
2019-06-20T09:06:09.832Z,69.22
2019-06-20T09:11:20.220Z,64.07
2019-06-20T09:16:27.144Z,69.84
2019-06-20T09:21:32.239Z,69.34
2019-06-20T09:26:35.689Z,70.67
2019-06-20T09:31:40.210Z,68.12
2019-06-20T09:36:44.988Z,67.87
2019-06-20T09:41:48.327Z,66.28
2019-06-20T09:46:52.882Z,66.83
2019-06-20T09:51:56.668Z,64.43
2019-06-20T09:56:58.653Z,62.91
2019-06-20T10:02:00.464Z,59.72
2019-06-20T10:07:04.114Z,61.95
2019-06-20T10:12:08.561Z,60.36
2019-06-20T10:17:10.572Z,60.23
2019-06-20T10:22:13.590Z,59.09
2019-06-20T10:27:15.442Z,59.84
2019-06-20T10:32:23.867Z,58.97
2019-06-20T10:37:24.657Z,62.37
2019-06-20T10:42:31.350Z,62.55
2019-06-20T10:47:36.086Z,61.92
2019-06-20T10:52:41.017Z,59.86
2019-06-20T10:57:44.550Z,57.73
2019-06-20T11:02:49.170Z,59.43
2019-06-20T11:07:51.269Z,64.28
2019-06-20T11:12:55.993Z,62.01
2019-06-20T11:17:57.188Z,59.96
2019-06-20T11:23:01.221Z,60.89
2019-06-20T11:28:05.857Z,59.27
2019-06-20T11:33:08.137Z,60.03
2019-06-20T11:38:12.257Z,61.70
2019-06-20T11:43:14.079Z,56.58
2019-06-20T11:48:17.155Z,56.75
2019-06-20T11:53:19.495Z,57.77
2019-06-20T11:58:23.513Z,56.51
2019-06-20T12:03:28.609Z,58.38
2019-06-20T12:08:35.321Z,53.66
2019-06-20T12:13:40.410Z,54.49
2019-06-20T12:18:45.185Z,57.35
2019-06-20T12:23:48.987Z,56.70
2019-06-20T12:28:55.466Z,55.20
2019-06-20T12:33:59.360Z,52.94
2019-06-20T12:39:01.765Z,54.98
2019-06-20T12:44:04.681Z,51.88
2019-06-20T12:49:07.274Z,53.00
2019-06-20T12:54:09.085Z,53.49
2019-06-20T12:59:11.217Z,57.92
2019-06-20T13:04:16.205Z,57.90
2019-06-20T13:09:20.148Z,54.70
2019-06-20T13:14:22.175Z,55.53
2019-06-20T13:19:24.265Z,55.94
2019-06-20T13:24:28.575Z,53.48
2019-06-20T13:29:34.462Z,52.11
2019-06-20T13:34:41.240Z,52.99
2019-06-20T13:39:47.742Z,53.31
2019-06-20T13:44:49.847Z,55.71
2019-06-20T13:49:52.330Z,54.08
2019-06-20T13:54:59.015Z,52.37
2019-06-20T14:00:03.811Z,54.61
2019-06-20T14:05:08.132Z,52.92
2019-06-20T14:10:10.166Z,53.42
2019-06-20T14:15:13.282Z,53.44
2019-06-20T14:20:18.239Z,55.30
2019-06-20T14:25:23.014Z,54.23
2019-06-20T14:30:28.545Z,53.75
2019-06-20T14:35:30.411Z,51.85
2019-06-20T14:40:32.237Z,52.83
2019-06-20T14:45:38.121Z,54.28
2019-06-20T14:50:40.078Z,51.28
2019-06-20T14:55:44.245Z,53.50
2019-06-20T15:00:49.792Z,51.30
2019-06-20T15:05:52.676Z,51.61
2019-06-20T15:10:55.837Z,51.71
2019-06-20T15:16:05.057Z,52.77
2019-06-20T15:21:09.410Z,52.47
2019-06-20T15:26:14.130Z,52.02
2019-06-20T15:31:16.884Z,50.79
2019-06-20T15:36:20.723Z,50.52
2019-06-20T15:41:23.306Z,50.98
2019-06-20T15:46:25.421Z,51.31
2019-06-20T15:51:30.142Z,47.99
2019-06-20T15:56:33.941Z,47.97
2019-06-20T16:01:39.116Z,45.98
2019-06-20T16:06:42.428Z,48.44
2019-06-20T16:11:50.561Z,50.25
2019-06-20T16:16:54.435Z,53.13
2019-06-20T16:21:58.565Z,50.39
2019-06-20T16:27:05.056Z,51.06
2019-06-20T16:32:12.809Z,53.95
2019-06-20T16:37:14.943Z,56.07
2019-06-20T16:42:22.279Z,54.84
2019-06-20T16:47:24.889Z,54.78
2019-06-20T16:52:30.440Z,55.45
2019-06-20T16:57:32.228Z,58.48
2019-06-20T17:02:37.327Z,56.86
2019-06-20T17:07:41.710Z,53.15
2019-06-20T17:12:47.187Z,53.69
2019-06-20T17:17:51.651Z,56.74
2019-06-20T17:22:59.242Z,56.46
2019-06-20T17:28:03.929Z,54.85
2019-06-20T17:33:06.591Z,53.42
2019-06-20T17:38:08.455Z,52.79
2019-06-20T17:43:10.261Z,55.67
2019-06-20T17:48:13.861Z,56.56
2019-06-20T17:53:15.642Z,54.94
2019-06-20T17:58:23.278Z,55.92
2019-06-20T18:03:27.196Z,56.09
2019-06-20T18:08:28.886Z,55.58
2019-06-20T18:13:34.605Z,55.48
2019-06-20T18:18:36.443Z,56.86
2019-06-20T18:23:38.553Z,57.76
2019-06-20T18:28:40.295Z,58.36
2019-06-20T18:33:42.233Z,56.02
2019-06-20T18:38:46.155Z,55.83
2019-06-20T18:43:53.068Z,55.67
2019-06-20T18:48:57.981Z,55.60
2019-06-20T18:54:03.508Z,57.93
2019-06-20T18:59:05.328Z,54.65
2019-06-20T19:04:08.331Z,55.54
2019-06-20T19:09:10.128Z,56.20
2019-06-20T19:14:15.072Z,55.97
2019-06-20T19:19:22.069Z,56.00
2019-06-20T19:24:24.461Z,54.45
2019-06-20T19:29:26.859Z,55.61
2019-06-20T19:34:28.696Z,57.18
2019-06-20T19:39:32.057Z,56.07
2019-06-20T19:44:34.005Z,55.33
2019-06-20T19:49:38.873Z,56.52
2019-06-20T19:54:43.674Z,57.38
2019-06-20T19:59:46.323Z,59.25
2019-06-20T20:04:48.735Z,59.17
2019-06-20T20:09:50.506Z,58.25
2019-06-20T20:14:57.134Z,59.77
2019-06-20T20:19:59.269Z,59.81
2019-06-20T20:25:04.770Z,61.41
2019-06-20T20:30:07.130Z,60.94
2019-06-20T20:35:09.594Z,63.90
2019-06-20T20:40:11.615Z,63.65
2019-06-20T20:45:19.815Z,63.77
2019-06-20T20:50:24.392Z,64.27
2019-06-20T20:55:26.251Z,63.27
2019-06-20T21:00:35.399Z,64.56
2019-06-20T21:05:50.668Z,66.28
2019-06-20T21:10:43.939Z,66.06
2019-06-20T21:15:46.399Z,67.85
2019-06-20T21:20:50.906Z,66.17
2019-06-20T21:25:53.580Z,65.34
2019-06-20T21:30:58.899Z,66.87
2019-06-20T21:36:08.440Z,65.80
2019-06-20T21:41:07.289Z,66.46
2019-06-20T21:46:09.451Z,65.45
2019-06-20T21:51:11.520Z,66.41
2019-06-20T21:56:13.650Z,65.82
2019-06-20T22:01:18.922Z,69.86
2019-06-20T22:06:24.288Z,70.01
2019-06-20T22:11:28.307Z,73.57
2019-06-20T22:16:37.542Z,72.39
2019-06-20T22:21:39.334Z,68.46
2019-06-20T22:26:41.299Z,70.42
2019-06-20T22:31:43.102Z,72.23
2019-06-20T22:36:44.924Z,72.41
2019-06-20T22:41:47.995Z,71.72
2019-06-20T22:46:49.796Z,70.26
2019-06-20T22:51:52.220Z,70.83
2019-06-20T22:56:56.672Z,70.66
2019-06-20T23:01:59.389Z,71.18
2019-06-20T23:07:01.306Z,71.64
2019-06-20T23:12:05.168Z,69.58
2019-06-20T23:17:07.302Z,70.96
2019-06-20T23:22:11.037Z,71.70
2019-06-20T23:27:14.439Z,71.67
2019-06-20T23:32:18.266Z,74.91
2019-06-20T23:37:21.657Z,73.44
2019-06-20T23:42:23.621Z,74.31
2019-06-20T23:47:32.377Z,72.58
2019-06-20T23:52:36.612Z,73.16
2019-06-20T23:57:40.609Z,74.31
